createdAt,value
2019-03-31T00:00:31.547Z,99175.09
2019-03-31T00:03:05.491Z,99176.00
2019-03-31T00:05:38.799Z,99177.73
2019-03-31T00:08:12.634Z,99186.55
2019-03-31T00:10:46.468Z,99181.48
2019-03-31T00:13:20.043Z,99182.42
2019-03-31T00:15:54.216Z,99186.73
2019-03-31T00:18:28.146Z,99195.78
2019-03-31T00:21:02.046Z,99185.80
2019-03-31T00:23:36.666Z,99190.14
2019-03-31T00:26:32.403Z,99188.19
2019-03-31T00:29:06.353Z,99194.42
2019-03-31T00:31:41.022Z,99186.84
2019-03-31T00:34:15.403Z,99191.19
2019-03-31T00:36:51.216Z,99195.05
2019-03-31T00:39:27.128Z,99190.53
2019-03-31T00:42:02.961Z,99197.53
2019-03-31T00:44:37.175Z,99197.00
2019-03-31T00:47:11.242Z,99201.74
2019-03-31T00:49:45.847Z,99196.11
2019-03-31T00:52:20.776Z,99193.91
2019-03-31T00:54:55.199Z,99198.25
2019-03-31T00:57:29.548Z,99195.61
2019-03-31T01:00:05.381Z,99203.09
2019-03-31T01:02:40.322Z,99200.70
2019-03-31T01:05:14.722Z,99201.83
2019-03-31T01:07:50.064Z,99203.16
2019-03-31T01:10:24.317Z,99204.73
2019-03-31T01:12:58.907Z,99197.86
2019-03-31T01:15:35.197Z,99205.35
2019-03-31T01:18:09.685Z,99204.45
2019-03-31T01:20:43.514Z,99201.11
2019-03-31T01:23:17.208Z,99206.20
2019-03-31T01:25:51.883Z,99206.39
2019-03-31T01:28:28.029Z,99207.34
2019-03-31T01:31:02.374Z,99202.14
2019-03-31T01:33:36.448Z,99193.73
2019-03-31T01:36:10.574Z,99201.59
2019-03-31T01:38:44.269Z,99191.06
2019-03-31T01:41:19.403Z,99193.34
2019-03-31T01:43:54.154Z,99196.20
2019-03-31T01:46:33.024Z,99199.41
2019-03-31T01:49:08.691Z,99191.44
2019-03-31T01:51:45.276Z,99196.41
2019-03-31T01:54:23.512Z,99191.66
2019-03-31T01:56:58.799Z,99185.74
2019-03-31T01:59:36.683Z,99187.05
2019-03-31T02:02:14.309Z,99189.91
2019-03-31T02:04:48.645Z,99188.24
2019-03-31T02:07:23.888Z,99191.05
2019-03-31T02:10:01.412Z,99183.02
2019-03-31T02:12:36.179Z,99187.67
2019-03-31T02:15:10.738Z,99184.87
2019-03-31T02:17:46.500Z,99184.45
2019-03-31T02:20:23.651Z,99179.16
2019-03-31T02:22:58.627Z,99168.52
2019-03-31T02:25:33.474Z,99179.65
2019-03-31T02:28:10.658Z,99182.09
2019-03-31T02:30:44.904Z,99180.99
2019-03-31T02:33:19.277Z,99173.22
2019-03-31T02:35:53.356Z,99184.42
2019-03-31T02:38:27.742Z,99173.91
2019-03-31T02:41:01.647Z,99169.23
2019-03-31T02:43:37.560Z,99172.25
2019-03-31T02:46:11.471Z,99175.78
2019-03-31T02:48:46.456Z,99161.40
2019-03-31T02:51:22.729Z,99163.84
2019-03-31T02:53:58.922Z,99158.95
2019-03-31T02:56:33.925Z,99150.89
2019-03-31T02:59:07.849Z,99156.71
2019-03-31T03:01:44.702Z,99159.44
2019-03-31T03:04:20.411Z,99151.09
2019-03-31T03:06:57.635Z,99148.70
2019-03-31T03:09:33.604Z,99138.46
2019-03-31T03:12:10.001Z,99139.34
2019-03-31T03:14:44.527Z,99126.81
2019-03-31T03:17:19.543Z,99135.81
2019-03-31T03:19:53.736Z,99131.41
2019-03-31T03:22:29.062Z,99124.90
2019-03-31T03:25:03.826Z,99126.50
2019-03-31T03:27:39.331Z,99132.45
2019-03-31T03:30:14.174Z,99124.11
2019-03-31T03:33:12.425Z,99120.03
2019-03-31T03:35:22.380Z,99121.65
2019-03-31T03:37:56.315Z,99123.03
2019-03-31T03:40:30.106Z,99135.48
2019-03-31T03:43:04.087Z,99124.06
2019-03-31T03:45:37.605Z,99117.85
2019-03-31T03:48:32.667Z,99114.30
2019-03-31T03:50:51.778Z,99113.45
2019-03-31T03:53:27.353Z,99108.34
2019-03-31T03:56:02.766Z,99105.51
2019-03-31T03:58:39.092Z,99105.14
2019-03-31T04:01:13.685Z,99117.52
2019-03-31T04:03:47.342Z,99103.41
2019-03-31T04:06:21.068Z,99106.39
2019-03-31T04:08:58.463Z,99101.50
2019-03-31T04:11:36.747Z,99102.72
2019-03-31T04:14:13.214Z,99101.55
2019-03-31T04:16:52.953Z,99102.08
2019-03-31T04:19:26.989Z,99090.09
2019-03-31T04:22:11.822Z,99103.16
2019-03-31T04:24:47.952Z,99096.61
2019-03-31T04:27:22.824Z,99086.52
2019-03-31T04:29:59.568Z,99088.45
2019-03-31T04:32:38.535Z,99088.16
2019-03-31T04:35:10.451Z,99086.53
2019-03-31T04:37:46.262Z,99093.27
2019-03-31T04:40:22.406Z,99074.23
2019-03-31T04:43:02.130Z,99083.55
2019-03-31T04:45:37.736Z,99075.38
2019-03-31T04:48:20.801Z,99076.77
2019-03-31T04:50:57.268Z,99065.83
2019-03-31T04:53:32.008Z,99068.34
2019-03-31T04:56:08.249Z,99069.17
2019-03-31T04:58:48.924Z,99072.16
2019-03-31T05:01:27.550Z,99068.08
2019-03-31T05:04:07.516Z,99059.11
2019-03-31T05:06:43.559Z,99070.23
2019-03-31T05:09:18.112Z,99073.09
2019-03-31T05:11:57.601Z,99068.69
2019-03-31T05:14:33.170Z,99066.83
2019-03-31T05:17:09.253Z,99066.98
2019-03-31T05:19:44.242Z,99057.45
2019-03-31T05:22:20.631Z,99048.06
2019-03-31T05:25:04.155Z,99055.19
2019-03-31T05:27:40.036Z,99053.31
2019-03-31T05:30:15.002Z,99046.54
2019-03-31T05:32:49.838Z,99051.89
2019-03-31T05:35:27.180Z,99048.97
2019-03-31T05:38:02.222Z,99057.41
2019-03-31T05:40:38.055Z,99056.81
2019-03-31T05:43:14.813Z,99056.27
2019-03-31T05:45:52.322Z,99056.50
2019-03-31T05:48:28.816Z,99058.36
2019-03-31T05:51:03.029Z,99061.80
2019-03-31T05:53:37.859Z,99068.08
2019-03-31T05:56:17.160Z,99064.49
2019-03-31T05:58:56.530Z,99074.23
2019-03-31T06:01:33.181Z,99073.89
2019-03-31T06:04:08.624Z,99057.73
2019-03-31T06:06:51.939Z,99066.23
2019-03-31T06:09:28.994Z,99064.09
2019-03-31T06:12:10.290Z,99061.03
2019-03-31T06:14:44.640Z,99056.77
2019-03-31T06:17:20.630Z,99062.14
2019-03-31T06:19:55.453Z,99072.75
2019-03-31T06:22:32.622Z,99071.33
2019-03-31T06:25:17.585Z,99065.67
2019-03-31T06:27:57.935Z,99044.37
2019-03-31T06:30:35.118Z,99044.37
2019-03-31T06:33:13.633Z,99048.80
2019-03-31T06:35:53.263Z,99044.79
2019-03-31T06:38:28.873Z,99035.63
2019-03-31T06:41:04.593Z,99039.97
2019-03-31T06:43:39.705Z,99035.40
2019-03-31T06:46:15.691Z,99032.45
2019-03-31T06:48:52.529Z,99024.25
2019-03-31T06:51:28.694Z,99018.84
2019-03-31T06:54:05.213Z,99019.94
2019-03-31T06:56:47.276Z,99020.96
2019-03-31T06:59:23.617Z,99026.09
2019-03-31T07:02:02.864Z,99035.91
2019-03-31T07:04:38.483Z,99035.91
2019-03-31T07:07:17.816Z,99039.75
2019-03-31T07:09:52.403Z,99025.05
2019-03-31T07:12:27.598Z,99032.61
2019-03-31T07:15:05.665Z,99038.65
2019-03-31T07:17:42.299Z,99043.05
2019-03-31T07:20:19.119Z,99044.66
2019-03-31T07:22:57.435Z,99046.48
2019-03-31T07:25:36.950Z,99045.09
2019-03-31T07:28:10.768Z,99035.91
2019-03-31T07:30:49.579Z,99040.34
2019-03-31T07:33:25.877Z,99034.36
2019-03-31T07:36:02.483Z,99036.81
2019-03-31T07:38:39.620Z,99035.42
2019-03-31T07:41:15.488Z,99035.16
2019-03-31T07:43:50.136Z,99031.38
2019-03-31T07:46:25.354Z,99032.97
2019-03-31T07:48:59.851Z,99038.44
2019-03-31T07:51:37.347Z,99033.52
2019-03-31T07:54:09.856Z,99042.78
2019-03-31T07:56:45.348Z,99035.72
2019-03-31T07:59:18.996Z,99033.45
2019-03-31T08:01:53.041Z,99031.28
2019-03-31T08:04:28.079Z,99029.91
2019-03-31T08:07:02.536Z,99029.92
2019-03-31T08:09:37.724Z,99027.21
2019-03-31T08:12:11.798Z,99027.19
2019-03-31T08:14:49.182Z,99022.39
2019-03-31T08:17:23.303Z,99024.28
2019-03-31T08:19:57.872Z,99035.94
2019-03-31T08:22:33.427Z,99034.08
2019-03-31T08:25:08.418Z,99033.20
2019-03-31T08:27:42.332Z,99040.24
2019-03-31T08:30:17.469Z,99048.05
2019-03-31T08:32:51.114Z,99051.81
2019-03-31T08:35:25.519Z,99044.27
2019-03-31T08:37:59.253Z,99049.18
2019-03-31T08:40:52.379Z,99065.91
2019-03-31T08:43:25.637Z,99069.72
2019-03-31T08:46:05.603Z,99068.26
2019-03-31T08:48:39.465Z,99063.83
2019-03-31T08:51:13.683Z,99055.65
2019-03-31T08:53:48.017Z,99059.14
2019-03-31T08:56:21.940Z,99067.09
2019-03-31T08:58:55.775Z,99060.80
2019-03-31T09:01:31.431Z,99061.11
2019-03-31T09:04:06.178Z,99069.61
2019-03-31T09:06:41.031Z,99090.03
2019-03-31T09:09:15.068Z,99080.77
2019-03-31T09:11:49.133Z,99075.14
2019-03-31T09:14:24.201Z,99072.48
2019-03-31T09:17:01.983Z,99071.94
2019-03-31T09:19:36.910Z,99072.76
2019-03-31T09:22:12.580Z,99078.73
2019-03-31T09:24:46.782Z,99083.92
2019-03-31T09:27:21.391Z,99083.03
2019-03-31T09:29:55.605Z,99081.05
2019-03-31T09:32:30.849Z,99075.88
2019-03-31T09:35:06.134Z,99078.36
2019-03-31T09:37:40.933Z,99084.07
2019-03-31T09:40:22.687Z,99082.16
2019-03-31T09:42:57.549Z,99084.21
2019-03-31T09:45:32.617Z,99088.00
2019-03-31T09:48:07.047Z,99094.27
2019-03-31T09:50:42.719Z,99096.64
2019-03-31T09:53:19.370Z,99100.86
2019-03-31T09:55:54.102Z,99103.03
2019-03-31T09:58:31.687Z,99097.61
2019-03-31T10:01:08.044Z,99104.07
2019-03-31T10:03:42.266Z,99094.62
2019-03-31T10:06:29.558Z,99108.64
2019-03-31T10:08:52.878Z,99111.11
2019-03-31T10:11:27.966Z,99109.34
2019-03-31T10:14:04.713Z,99112.13
2019-03-31T10:16:39.777Z,99112.34
2019-03-31T10:19:14.802Z,99114.84
2019-03-31T10:21:49.467Z,99121.05
2019-03-31T10:24:24.141Z,99121.87
2019-03-31T10:26:59.677Z,99128.44
2019-03-31T10:29:34.423Z,99132.46
2019-03-31T10:32:09.444Z,99134.14
2019-03-31T10:34:44.058Z,99134.68
2019-03-31T10:37:18.622Z,99138.20
2019-03-31T10:39:56.926Z,99140.67
2019-03-31T10:42:31.865Z,99136.36
2019-03-31T10:45:12.566Z,99141.66
2019-03-31T10:47:47.943Z,99146.83
2019-03-31T10:50:23.038Z,99143.86
2019-03-31T10:52:57.815Z,99144.43
2019-03-31T10:55:35.514Z,99153.04
2019-03-31T10:58:11.029Z,99161.02
2019-03-31T11:00:45.771Z,99165.86
2019-03-31T11:03:20.932Z,99164.60
2019-03-31T11:05:57.100Z,99164.50
2019-03-31T11:08:33.435Z,99165.18
2019-03-31T11:11:07.296Z,99169.91
2019-03-31T11:13:42.211Z,99174.30
2019-03-31T11:16:16.821Z,99171.02
2019-03-31T11:19:10.953Z,99175.98
2019-03-31T11:22:08.801Z,99183.58
2019-03-31T11:24:43.660Z,99183.16
2019-03-31T11:27:19.837Z,99188.11
2019-03-31T11:29:57.563Z,99188.30
2019-03-31T11:32:32.610Z,99198.00
2019-03-31T11:35:08.677Z,99198.76
2019-03-31T11:37:43.751Z,99198.00
2019-03-31T11:40:18.348Z,99205.61
2019-03-31T11:42:53.017Z,99207.59
2019-03-31T11:45:27.633Z,99214.31
2019-03-31T11:48:05.903Z,99214.42
2019-03-31T11:50:41.228Z,99213.27
2019-03-31T11:53:17.981Z,99217.92
2019-03-31T11:55:54.818Z,99219.80
2019-03-31T11:58:32.271Z,99222.39
2019-03-31T12:01:08.241Z,99216.16
2019-03-31T12:03:44.985Z,99224.92
2019-03-31T12:06:20.086Z,99224.92
2019-03-31T12:08:54.759Z,99232.64
2019-03-31T12:11:30.597Z,99229.09
2019-03-31T12:14:06.390Z,99234.62
2019-03-31T12:16:42.363Z,99235.16
2019-03-31T12:19:19.699Z,99235.34
2019-03-31T12:22:03.679Z,99236.45
2019-03-31T12:24:38.890Z,99237.73
2019-03-31T12:27:14.988Z,99237.41
2019-03-31T12:29:52.696Z,99242.34
2019-03-31T12:32:33.357Z,99245.53
2019-03-31T12:35:14.806Z,99242.77
2019-03-31T12:37:50.379Z,99248.89
2019-03-31T12:40:35.995Z,99247.07
2019-03-31T12:43:15.922Z,99248.23
2019-03-31T12:45:51.414Z,99247.41
2019-03-31T12:48:26.963Z,99252.34
2019-03-31T12:51:09.328Z,99250.42
2019-03-31T12:53:46.604Z,99249.32
2019-03-31T12:56:27.300Z,99255.52
2019-03-31T12:59:04.071Z,99246.27
2019-03-31T13:01:40.703Z,99247.32
2019-03-31T13:04:17.005Z,99251.78
2019-03-31T13:06:54.333Z,99252.64
2019-03-31T13:09:36.986Z,99249.27
2019-03-31T13:12:13.173Z,99251.52
2019-03-31T13:14:52.307Z,99255.61
2019-03-31T13:17:28.682Z,99256.69
2019-03-31T13:20:06.335Z,99256.84
2019-03-31T13:22:45.631Z,99260.88
2019-03-31T13:25:21.077Z,99260.59
2019-03-31T13:27:55.721Z,99264.80
2019-03-31T13:30:31.200Z,99267.34
2019-03-31T13:33:08.320Z,99262.73
2019-03-31T13:35:44.083Z,99266.47
2019-03-31T13:38:20.303Z,99261.03
2019-03-31T13:40:56.640Z,99261.82
2019-03-31T13:43:31.664Z,99262.45
2019-03-31T13:46:08.062Z,99261.22
2019-03-31T13:48:43.336Z,99264.05
2019-03-31T13:51:19.907Z,99265.96
2019-03-31T13:53:57.194Z,99267.88
2019-03-31T13:56:32.964Z,99271.83
2019-03-31T13:59:09.218Z,99274.34
2019-03-31T14:01:45.052Z,99272.52
2019-03-31T14:04:19.140Z,99263.56
2019-03-31T14:06:53.429Z,99269.22
2019-03-31T14:09:28.884Z,99272.36
2019-03-31T14:12:02.988Z,99277.00
2019-03-31T14:14:38.265Z,99280.47
2019-03-31T14:17:13.586Z,99281.55
2019-03-31T14:19:48.973Z,99282.11
2019-03-31T14:22:22.798Z,99277.88
2019-03-31T14:24:57.799Z,99278.94
2019-03-31T14:27:31.894Z,99282.16
2019-03-31T14:30:08.146Z,99279.13
2019-03-31T14:32:42.465Z,99279.64
2019-03-31T14:35:16.436Z,99278.18
2019-03-31T14:37:50.138Z,99283.31
2019-03-31T14:40:26.350Z,99281.87
2019-03-31T14:43:00.099Z,99285.96
2019-03-31T14:45:36.860Z,99288.50
2019-03-31T14:48:12.381Z,99290.26
2019-03-31T14:50:48.127Z,99285.77
2019-03-31T14:53:23.085Z,99290.63
2019-03-31T14:55:57.114Z,99283.09
2019-03-31T14:58:30.817Z,99282.77
2019-03-31T15:01:04.518Z,99289.73
2019-03-31T15:03:38.504Z,99292.30
2019-03-31T15:06:14.019Z,99282.56
2019-03-31T15:08:54.309Z,99285.71
2019-03-31T15:11:22.449Z,99285.71
2019-03-31T15:13:56.512Z,99288.16
2019-03-31T15:16:30.390Z,99294.70
2019-03-31T15:19:10.469Z,99291.66
2019-03-31T15:21:44.367Z,99293.28
2019-03-31T15:24:18.166Z,99294.62
2019-03-31T15:26:52.011Z,99291.72
2019-03-31T15:29:25.450Z,99288.61
2019-03-31T15:31:59.043Z,99295.31
2019-03-31T15:34:32.885Z,99285.23
2019-03-31T15:37:06.620Z,99282.38
2019-03-31T15:39:40.122Z,99286.19
2019-03-31T15:42:15.041Z,99286.57
2019-03-31T15:44:48.698Z,99287.77
2019-03-31T15:47:22.665Z,99289.10
2019-03-31T15:49:56.424Z,99288.16
2019-03-31T15:52:30.132Z,99290.62
2019-03-31T15:55:05.062Z,99293.00
2019-03-31T15:57:38.636Z,99287.84
2019-03-31T16:00:14.596Z,99293.36
2019-03-31T16:02:48.160Z,99293.38
2019-03-31T16:05:21.791Z,99297.27
2019-03-31T16:07:55.330Z,99301.66
2019-03-31T16:10:32.400Z,99298.88
2019-03-31T16:13:06.588Z,99298.31
2019-03-31T16:15:39.959Z,99298.62
2019-03-31T16:18:13.600Z,99292.41
2019-03-31T16:20:46.767Z,99297.80
2019-03-31T16:23:20.482Z,99292.79
2019-03-31T16:25:54.128Z,99292.87
2019-03-31T16:28:27.852Z,99284.73
2019-03-31T16:31:01.767Z,99288.26
2019-03-31T16:33:35.348Z,99285.78
2019-03-31T16:36:09.185Z,99283.07
2019-03-31T16:38:42.602Z,99282.53
2019-03-31T16:41:16.146Z,99289.36
2019-03-31T16:43:51.020Z,99288.35
2019-03-31T16:46:24.978Z,99288.43
2019-03-31T16:48:58.473Z,99291.56
2019-03-31T16:51:31.912Z,99287.61
2019-03-31T16:54:05.797Z,99280.47
2019-03-31T16:56:39.269Z,99280.34
2019-03-31T16:59:12.980Z,99287.03
2019-03-31T17:01:46.447Z,99281.87
2019-03-31T17:04:20.133Z,99280.25
2019-03-31T17:06:53.911Z,99273.34
2019-03-31T17:09:27.703Z,99279.25
2019-03-31T17:12:01.486Z,99285.78
2019-03-31T17:14:35.519Z,99280.47
2019-03-31T17:17:09.183Z,99274.70
2019-03-31T17:19:42.791Z,99274.14
2019-03-31T17:22:16.302Z,99281.41
2019-03-31T17:24:49.669Z,99277.50
2019-03-31T17:27:22.919Z,99279.22
2019-03-31T17:29:56.346Z,99270.53
2019-03-31T17:32:30.068Z,99277.19
2019-03-31T17:35:03.758Z,99265.98
2019-03-31T17:37:37.522Z,99275.12
2019-03-31T17:40:11.702Z,99276.51
2019-03-31T17:42:45.286Z,99270.73
2019-03-31T17:45:18.835Z,99267.47
2019-03-31T17:47:52.477Z,99265.61
2019-03-31T17:50:26.231Z,99263.39
2019-03-31T17:53:03.679Z,99260.17
2019-03-31T17:55:35.798Z,99263.00
2019-03-31T17:58:09.181Z,99262.48
2019-03-31T18:00:42.620Z,99259.34
2019-03-31T18:03:16.163Z,99259.66
2019-03-31T18:05:49.813Z,99258.39
2019-03-31T18:08:23.457Z,99256.66
2019-03-31T18:10:57.050Z,99257.96
2019-03-31T18:13:30.909Z,99259.67
2019-03-31T18:16:04.574Z,99256.91
2019-03-31T18:18:38.891Z,99259.83
2019-03-31T18:21:12.615Z,99259.08
2019-03-31T18:23:46.102Z,99263.38
2019-03-31T18:26:19.863Z,99258.00
2019-03-31T18:28:53.479Z,99261.14
2019-03-31T18:31:27.246Z,99257.57
2019-03-31T18:34:01.061Z,99263.85
2019-03-31T18:36:37.018Z,99261.37
2019-03-31T18:39:10.349Z,99258.59
2019-03-31T18:41:44.851Z,99257.02
2019-03-31T18:44:18.389Z,99257.01
2019-03-31T18:46:51.679Z,99261.86
2019-03-31T18:49:25.426Z,99263.30
2019-03-31T18:51:59.138Z,99261.13
2019-03-31T18:54:32.813Z,99263.59
2019-03-31T18:57:06.575Z,99266.38
2019-03-31T18:59:41.985Z,99264.92
2019-03-31T19:02:15.687Z,99270.57
2019-03-31T19:04:50.695Z,99263.58
2019-03-31T19:07:24.506Z,99265.66
2019-03-31T19:09:58.277Z,99273.84
2019-03-31T19:12:31.812Z,99268.83
2019-03-31T19:15:05.278Z,99272.97
2019-03-31T19:17:38.697Z,99260.52
2019-03-31T19:20:12.298Z,99268.46
2019-03-31T19:22:51.269Z,99265.16
2019-03-31T19:25:24.992Z,99267.75
2019-03-31T19:28:00.498Z,99278.33
2019-03-31T19:30:34.356Z,99274.94
2019-03-31T19:33:07.738Z,99276.67
2019-03-31T19:35:41.398Z,99276.67
2019-03-31T19:38:15.276Z,99282.10
2019-03-31T19:41:02.984Z,99277.92
2019-03-31T19:43:23.706Z,99277.64
2019-03-31T19:45:57.262Z,99284.59
2019-03-31T19:48:31.099Z,99277.98
2019-03-31T19:51:06.064Z,99279.98
2019-03-31T19:53:39.708Z,99276.41
2019-03-31T19:56:13.361Z,99287.18
2019-03-31T19:58:48.540Z,99284.22
2019-03-31T20:01:22.483Z,99277.81
2019-03-31T20:03:56.131Z,99281.81
2019-03-31T20:06:30.054Z,99280.47
2019-03-31T20:09:03.987Z,99285.77
2019-03-31T20:11:37.532Z,99286.97
2019-03-31T20:14:11.106Z,99293.03
2019-03-31T20:16:45.527Z,99286.70
2019-03-31T20:19:19.240Z,99286.97
2019-03-31T20:21:52.856Z,99287.00
2019-03-31T20:24:26.218Z,99283.80
2019-03-31T20:26:59.902Z,99286.45
2019-03-31T20:29:35.457Z,99278.98
2019-03-31T20:32:09.040Z,99287.52
2019-03-31T20:34:42.562Z,99288.27
2019-03-31T20:37:17.111Z,99290.41
2019-03-31T20:39:57.060Z,99281.88
2019-03-31T20:42:26.086Z,99283.22
2019-03-31T20:44:59.878Z,99285.64
2019-03-31T20:47:33.474Z,99287.78
2019-03-31T20:50:08.199Z,99287.63
2019-03-31T20:52:42.025Z,99292.53
2019-03-31T20:55:16.902Z,99288.79
2019-03-31T20:57:50.692Z,99296.64
2019-03-31T21:00:23.994Z,99297.05
2019-03-31T21:02:57.777Z,99303.29
2019-03-31T21:05:31.282Z,99299.00
2019-03-31T21:08:05.099Z,99308.70
2019-03-31T21:10:38.606Z,99312.87
2019-03-31T21:13:12.184Z,99309.11
2019-03-31T21:15:46.102Z,99308.63
2019-03-31T21:18:19.655Z,99312.87
2019-03-31T21:20:53.256Z,99310.80
2019-03-31T21:23:26.687Z,99315.81
2019-03-31T21:26:00.399Z,99320.36
2019-03-31T21:28:33.900Z,99320.15
2019-03-31T21:31:07.781Z,99315.23
2019-03-31T21:33:41.537Z,99320.64
2019-03-31T21:36:16.240Z,99322.56
2019-03-31T21:38:49.834Z,99326.41
2019-03-31T21:41:24.910Z,99326.06
2019-03-31T21:44:00.253Z,99329.66
2019-03-31T21:46:34.050Z,99332.17
2019-03-31T21:49:07.652Z,99333.55
2019-03-31T21:51:43.860Z,99336.49
2019-03-31T21:54:17.328Z,99335.28
2019-03-31T21:56:51.211Z,99332.93
2019-03-31T21:59:25.167Z,99351.48
2019-03-31T22:02:00.309Z,99351.48
2019-03-31T22:04:35.445Z,99350.11
2019-03-31T22:07:08.959Z,99350.11
2019-03-31T22:09:42.694Z,99361.09
2019-03-31T22:12:16.472Z,99354.59
2019-03-31T22:14:50.275Z,99358.61
2019-03-31T22:17:23.929Z,99364.60
2019-03-31T22:19:57.609Z,99360.97
2019-03-31T22:22:33.142Z,99362.44
2019-03-31T22:25:07.574Z,99363.27
2019-03-31T22:27:41.192Z,99365.12
2019-03-31T22:30:14.824Z,99368.44
2019-03-31T22:32:48.948Z,99364.91
2019-03-31T22:35:22.687Z,99372.58
2019-03-31T22:37:57.011Z,99376.75
2019-03-31T22:40:33.255Z,99370.31
2019-03-31T22:43:09.210Z,99379.02
2019-03-31T22:45:41.956Z,99382.46
2019-03-31T22:48:15.600Z,99374.52
2019-03-31T22:50:50.811Z,99381.54
2019-03-31T22:53:24.609Z,99379.19
2019-03-31T22:55:59.570Z,99385.50
2019-03-31T22:58:32.800Z,99388.97
2019-03-31T23:01:06.393Z,99385.55
2019-03-31T23:03:39.938Z,99396.20
2019-03-31T23:06:16.312Z,99391.91
2019-03-31T23:08:50.031Z,99398.05
2019-03-31T23:11:23.757Z,99397.89
2019-03-31T23:13:58.599Z,99402.77
2019-03-31T23:16:38.970Z,99400.13
2019-03-31T23:19:12.455Z,99409.78
2019-03-31T23:21:47.376Z,99405.19
2019-03-31T23:24:21.495Z,99413.30
2019-03-31T23:27:14.857Z,99408.35
2019-03-31T23:29:48.513Z,99413.34
2019-03-31T23:32:22.316Z,99414.30
2019-03-31T23:34:55.688Z,99412.32
2019-03-31T23:37:29.428Z,99407.25
2019-03-31T23:40:05.025Z,99412.42
2019-03-31T23:42:38.725Z,99418.42
2019-03-31T23:45:12.310Z,99415.98
2019-03-31T23:47:45.990Z,99419.08
2019-03-31T23:50:20.305Z,99415.72
2019-03-31T23:52:54.109Z,99421.85
2019-03-31T23:55:27.628Z,99418.55
2019-03-31T23:58:00.915Z,99426.97
